createdAt,value
2023-04-26T00:00:35.617Z,31.20
2023-04-26T00:03:04.955Z,31.20
2023-04-26T00:05:34.258Z,31.20
2023-04-26T00:08:03.413Z,31.20
2023-04-26T00:10:32.616Z,31.20
2023-04-26T00:13:01.922Z,31.20
2023-04-26T00:15:30.920Z,31.20
2023-04-26T00:17:59.806Z,31.20
2023-04-26T00:20:29.112Z,31.20
2023-04-26T00:22:58.205Z,31.20
2023-04-26T00:25:27.411Z,31.20
2023-04-26T00:27:56.593Z,31.30
2023-04-26T00:30:25.788Z,31.30
2023-04-26T00:32:54.915Z,31.30
2023-04-26T00:35:24.201Z,31.30
2023-04-26T00:37:53.651Z,31.30
2023-04-26T00:40:22.783Z,31.30
2023-04-26T00:42:51.880Z,31.30
2023-04-26T00:45:21.088Z,31.30
2023-04-26T00:47:50.939Z,31.30
2023-04-26T00:50:20.200Z,31.30
2023-04-26T00:52:49.190Z,31.30
2023-04-26T00:55:18.176Z,31.40
2023-04-26T00:57:47.383Z,31.40
2023-04-26T01:00:16.682Z,31.40
2023-04-26T01:02:46.514Z,31.40
2023-04-26T01:05:15.998Z,31.40
2023-04-26T01:07:45.703Z,31.40
2023-04-26T01:10:14.809Z,31.40
2023-04-26T01:12:44.120Z,31.50
2023-04-26T01:15:13.312Z,31.50
2023-04-26T01:17:43.041Z,31.50
2023-04-26T01:20:13.669Z,31.50
2023-04-26T01:22:42.940Z,31.50
2023-04-26T01:25:12.248Z,31.50
2023-04-26T01:27:41.443Z,31.50
2023-04-26T01:30:10.750Z,31.50
2023-04-26T01:32:40.109Z,31.50
2023-04-26T01:35:09.757Z,31.60
2023-04-26T01:37:39.051Z,31.60
2023-04-26T01:40:08.253Z,31.60
2023-04-26T01:42:38.511Z,31.60
2023-04-26T01:45:07.676Z,31.60
2023-04-26T13:05:30.009Z,31.40
2023-04-26T13:07:59.195Z,31.40
2023-04-26T13:10:28.401Z,31.60
2023-04-26T13:12:57.805Z,31.90
2023-04-26T13:15:27.212Z,32.10
2023-04-26T13:17:56.553Z,32.40
2023-04-26T13:20:26.765Z,32.60
2023-04-26T13:22:56.342Z,32.80
2023-04-26T13:25:25.636Z,32.90
2023-04-26T13:27:54.945Z,33.00
2023-04-26T13:30:24.448Z,33.10
2023-04-26T13:32:53.970Z,33.20
2023-04-26T13:35:23.464Z,33.30
2023-04-26T13:37:52.860Z,33.30
2023-04-26T13:40:24.615Z,33.40
2023-04-26T13:42:54.012Z,33.40
2023-04-26T13:45:23.217Z,32.10
2023-04-26T13:47:52.919Z,29.80
2023-04-26T13:50:22.139Z,28.10
2023-04-26T13:52:51.529Z,27.00
2023-04-26T13:55:20.836Z,26.40
2023-04-26T13:57:50.261Z,26.20
2023-04-26T14:00:19.841Z,26.10
2023-04-26T14:02:49.441Z,26.00
2023-04-26T14:05:19.007Z,26.10
2023-04-26T14:07:48.570Z,26.10
2023-04-26T14:10:17.762Z,26.10
2023-04-26T14:12:47.682Z,26.10
2023-04-26T14:15:16.884Z,26.10
2023-04-26T14:17:46.234Z,26.00
2023-04-26T14:20:15.571Z,26.00
2023-04-26T14:22:44.870Z,25.90
2023-04-26T14:25:14.070Z,26.00
2023-04-26T14:27:43.308Z,25.90
2023-04-26T14:30:12.680Z,25.90
2023-04-26T14:32:41.964Z,25.80
2023-04-26T14:35:11.382Z,25.20
2023-04-26T14:37:40.728Z,24.90
2023-04-26T14:40:10.083Z,24.80
2023-04-26T14:42:39.172Z,24.70
2023-04-26T14:45:08.684Z,24.80
2023-04-26T14:47:39.449Z,24.90
2023-04-26T14:50:08.401Z,24.90
2023-04-26T14:52:37.808Z,24.80
2023-04-26T14:55:07.211Z,24.70
2023-04-26T14:57:38.303Z,24.60
2023-04-26T15:00:06.878Z,24.60
2023-04-26T15:02:36.342Z,24.60
2023-04-26T15:05:05.765Z,24.50
2023-04-26T15:07:34.947Z,24.50
2023-04-26T15:10:04.305Z,24.50
2023-04-26T15:12:33.209Z,24.60
2023-04-26T15:15:02.233Z,24.60
2023-04-26T15:17:31.648Z,24.70
2023-04-26T15:20:01.051Z,24.80
2023-04-26T15:22:30.129Z,25.10
2023-04-26T15:24:59.357Z,25.20
2023-04-26T15:27:28.634Z,25.50
2023-04-26T15:29:57.722Z,25.70
2023-04-26T15:32:27.049Z,25.70
2023-04-26T15:34:56.328Z,25.80
2023-04-26T15:37:25.419Z,25.80
2023-04-26T15:39:54.513Z,25.80
2023-04-26T15:42:23.819Z,25.80
2023-04-26T15:44:54.664Z,25.80
2023-04-26T15:47:23.875Z,25.80
2023-04-26T15:49:53.150Z,25.80
2023-04-26T15:52:22.454Z,25.90
2023-04-26T15:54:51.763Z,25.90
2023-04-26T15:57:20.846Z,25.90
2023-04-26T15:59:49.947Z,25.90
2023-04-26T16:02:19.460Z,25.90
2023-04-26T16:04:48.883Z,25.90
2023-04-26T16:07:18.263Z,25.90
2023-04-26T16:09:47.773Z,26.00
2023-04-26T16:12:16.855Z,25.90
2023-04-26T16:14:45.866Z,25.90
2023-04-26T16:17:15.264Z,25.80
2023-04-26T16:19:44.559Z,25.70
2023-04-26T16:22:13.751Z,25.70
2023-04-26T16:24:42.960Z,25.70
2023-04-26T16:27:12.148Z,25.80
2023-04-26T16:29:41.245Z,25.80
2023-04-26T16:32:10.451Z,25.70
2023-04-26T16:34:39.646Z,25.60
2023-04-26T16:37:08.530Z,25.60
2023-04-26T16:39:37.525Z,25.60
2023-04-26T16:42:07.040Z,25.50
2023-04-26T16:44:36.228Z,25.60
2023-04-26T16:47:05.549Z,25.60
2023-04-26T16:49:34.842Z,25.60
2023-04-26T16:52:03.885Z,25.60
2023-04-26T16:54:33.127Z,25.60
2023-04-26T16:57:02.436Z,25.60
2023-04-26T16:59:31.738Z,25.60
2023-04-26T17:02:01.314Z,25.60
2023-04-26T17:04:30.736Z,25.50
2023-04-26T17:07:00.184Z,25.40
2023-04-26T17:09:29.452Z,25.50
2023-04-26T17:11:58.549Z,25.50
2023-04-26T17:14:27.631Z,25.50
2023-04-26T17:16:57.215Z,25.40
2023-04-26T17:19:26.334Z,25.60
2023-04-26T17:21:55.339Z,25.60
2023-04-26T17:24:24.527Z,25.50
2023-04-26T17:26:53.721Z,25.30
2023-04-26T17:29:22.917Z,25.10
2023-04-26T17:31:52.190Z,24.90
2023-04-26T17:34:21.523Z,24.80
2023-04-26T17:36:50.822Z,24.80
2023-04-26T17:39:19.917Z,24.80
2023-04-26T17:41:49.223Z,24.80
2023-04-26T17:44:18.293Z,24.80
2023-04-26T17:46:47.517Z,24.70
2023-04-26T17:49:16.611Z,24.70
2023-04-26T17:51:45.495Z,24.70
2023-04-26T17:54:14.614Z,24.70
2023-04-26T17:56:44.104Z,24.60
2023-04-26T17:59:13.612Z,24.60
2023-04-26T18:01:42.630Z,24.50
2023-04-26T18:04:12.159Z,24.60
2023-04-26T18:06:41.277Z,24.60
2023-04-26T18:09:10.408Z,24.60
2023-04-26T18:11:41.864Z,24.60
2023-04-26T18:14:10.014Z,24.60
2023-04-26T18:16:39.164Z,24.60
2023-04-26T18:19:08.311Z,24.60
2023-04-26T18:21:37.544Z,24.60
2023-04-26T18:24:06.509Z,24.60
2023-04-26T18:26:35.398Z,24.50
2023-04-26T18:29:04.394Z,24.50
2023-04-26T18:31:33.523Z,24.50
2023-04-26T18:34:02.577Z,24.50
2023-04-26T18:36:31.790Z,24.50
2023-04-26T18:39:01.242Z,24.50
2023-04-26T18:41:30.290Z,24.50
2023-04-26T18:43:59.171Z,24.50
2023-04-26T18:46:28.083Z,24.50
2023-04-26T18:48:56.951Z,24.40
2023-04-26T18:51:26.160Z,24.40
2023-04-26T18:53:55.057Z,24.40
2023-04-26T18:56:24.136Z,24.40
2023-04-26T18:58:53.026Z,24.50
2023-04-26T19:01:21.936Z,24.50
2023-04-26T19:03:51.125Z,24.70
2023-04-26T19:06:20.316Z,24.80
2023-04-26T19:08:49.437Z,24.80
2023-04-26T19:11:18.510Z,24.90
2023-04-26T19:13:47.395Z,24.90
2023-04-26T19:16:16.451Z,24.90
2023-04-26T19:18:45.804Z,25.00
2023-04-26T19:21:14.681Z,25.00
2023-04-26T19:23:45.372Z,25.00
2023-04-26T19:26:14.115Z,25.00
2023-04-26T19:28:42.994Z,25.10
2023-04-26T19:31:12.147Z,25.10
2023-04-26T19:33:41.304Z,25.00
2023-04-26T19:36:10.508Z,25.00
2023-04-26T19:38:39.583Z,25.00
2023-04-26T19:41:08.619Z,25.00
2023-04-26T19:43:37.754Z,25.00
2023-04-26T19:46:06.669Z,25.00
2023-04-26T19:48:35.561Z,24.90
2023-04-26T19:51:04.455Z,25.00
2023-04-26T19:53:33.552Z,25.00
2023-04-26T19:56:02.438Z,24.90
2023-04-26T19:58:31.334Z,25.00
2023-04-26T20:01:00.471Z,25.00
2023-04-26T20:03:29.769Z,25.00
2023-04-26T20:05:58.927Z,25.00
2023-04-26T20:08:28.770Z,25.20
2023-04-26T20:10:58.342Z,25.20
2023-04-26T20:13:27.231Z,25.20
2023-04-26T20:15:56.324Z,25.20
2023-04-26T20:18:25.335Z,25.20
2023-04-26T20:20:54.215Z,25.30
2023-04-26T20:23:23.119Z,25.30
2023-04-26T20:25:52.195Z,25.30
2023-04-26T20:28:21.201Z,25.30
2023-04-26T20:30:50.291Z,25.30
2023-04-26T20:33:19.184Z,25.40
2023-04-26T20:35:48.169Z,25.30
2023-04-26T20:38:17.162Z,25.40
2023-04-26T20:40:46.470Z,25.30
2023-04-26T20:43:15.350Z,25.30
2023-04-26T20:45:44.367Z,25.40
2023-04-26T20:48:13.553Z,25.40
2023-04-26T20:50:42.540Z,25.40
2023-04-26T20:53:11.429Z,25.30
2023-04-26T20:55:40.532Z,25.30
2023-04-26T20:58:09.631Z,25.40
2023-04-26T21:00:38.526Z,25.40
2023-04-26T21:03:07.591Z,25.30
2023-04-26T21:05:36.819Z,25.30
2023-04-26T21:08:06.232Z,25.30
2023-04-26T21:10:35.081Z,25.30
2023-04-26T21:13:04.211Z,25.30
2023-04-26T21:15:33.407Z,25.40
2023-04-26T21:18:02.611Z,25.40
2023-04-26T21:20:31.590Z,25.30
2023-04-26T21:23:00.800Z,25.40
2023-04-26T21:25:29.890Z,25.40
2023-04-26T21:27:58.980Z,26.00
2023-04-26T21:30:27.895Z,26.70
2023-04-26T21:32:56.792Z,27.20
2023-04-26T21:35:25.754Z,27.70
2023-04-26T21:37:54.756Z,28.10
2023-04-26T21:40:23.859Z,28.40
2023-04-26T21:43:04.028Z,28.70
2023-04-26T21:45:23.385Z,28.90
2023-04-26T21:47:52.473Z,29.10
2023-04-26T21:50:21.329Z,29.20
2023-04-26T21:52:50.244Z,29.30
2023-04-26T21:55:19.253Z,29.40
2023-04-26T21:57:48.546Z,29.50
2023-04-26T22:00:17.507Z,29.60
2023-04-26T22:02:48.016Z,29.70
2023-04-26T22:05:17.133Z,29.70
2023-04-26T22:07:45.948Z,29.80
2023-04-26T22:10:14.842Z,29.90
2023-04-26T22:12:43.937Z,30.00
2023-04-26T22:15:12.821Z,30.00
2023-04-26T22:17:41.968Z,30.00
2023-04-26T22:20:11.359Z,30.10
2023-04-26T22:22:40.326Z,30.10
2023-04-26T22:25:09.204Z,30.10
2023-04-26T22:27:38.299Z,30.20
2023-04-26T22:30:22.940Z,30.20
2023-04-26T22:32:37.930Z,30.20
2023-04-26T22:35:06.927Z,30.30
2023-04-26T22:37:35.910Z,30.30
2023-04-26T22:40:04.911Z,30.30
2023-04-26T22:42:33.791Z,30.30
2023-04-26T22:45:05.556Z,30.30
2023-04-26T22:47:34.684Z,30.20
2023-04-26T22:50:03.950Z,30.10
2023-04-26T22:52:33.038Z,30.10
2023-04-26T22:55:02.145Z,30.10
2023-04-26T22:57:31.121Z,30.10
2023-04-26T23:00:00.229Z,30.10
2023-04-26T23:02:29.353Z,30.10
2023-04-26T23:04:58.576Z,30.20
2023-04-26T23:07:27.527Z,30.30
2023-04-26T23:09:56.767Z,30.30
2023-04-26T23:12:26.136Z,30.30
2023-04-26T23:14:55.222Z,30.40
2023-04-26T23:17:24.245Z,30.50
2023-04-26T23:19:53.112Z,30.50
2023-04-26T23:22:22.202Z,30.60
2023-04-26T23:24:51.204Z,30.60
2023-04-26T23:27:20.487Z,30.60
2023-04-26T23:29:49.591Z,30.60
2023-04-26T23:32:18.591Z,30.60
2023-04-26T23:34:47.560Z,30.60
2023-04-26T23:37:16.680Z,30.60
2023-04-26T23:39:45.661Z,30.60
2023-04-26T23:42:14.966Z,30.60
2023-04-26T23:44:44.374Z,30.70
2023-04-26T23:47:13.680Z,30.70
2023-04-26T23:49:42.868Z,30.70
2023-04-26T23:52:23.559Z,30.70
2023-04-26T23:54:48.336Z,30.70
2023-04-26T23:57:26.673Z,30.70
